Time;durP1;ratioP1;P1;durP2;ratioP2;P2;SDS_P1;SDS_P2;PMS_P1;PMS_P2;Temp;Humidity;BMP_temperature;BMP_pressure;BME280_temperature;BME280_humidity;BME280_pressure;Samples;Min_cycle;Max_cycle;Signal;HPM_P1;HPM_P2
2022/03/03 00:01:25;;;;;;;18.50;11.43;;;2.10;99.90;;;;;;5033671;28;20044;-59
2022/03/03 00:03:51;;;;;;;19.23;12.10;;;2.10;99.90;;;;;;5026288;28;20501;-60
2022/03/03 00:06:17;;;;;;;20.50;12.05;;;2.10;99.90;;;;;;5029131;28;20088;-60
2022/03/03 00:08:42;;;;;;;19.70;11.75;;;2.10;99.90;;;;;;5028760;28;20038;-57
2022/03/03 00:11:08;;;;;;;16.60;11.38;;;2.00;99.90;;;;;;5028319;28;20033;-59
2022/03/03 00:13:33;;;;;;;19.52;11.93;;;2.00;99.90;;;;;;5034780;28;20057;-60
2022/03/03 00:16:02;;;;;;;19.55;12.77;;;1.90;99.90;;;;;;5033574;28;20043;-60
2022/03/03 00:18:28;;;;;;;16.83;11.35;;;1.80;99.90;;;;;;5033765;28;20656;-61
2022/03/03 00:20:53;;;;;;;20.35;12.10;;;1.80;99.90;;;;;;5036214;28;20028;-60
2022/03/03 00:23:19;;;;;;;17.00;10.98;;;1.70;99.90;;;;;;5029187;28;20037;-60
2022/03/03 00:25:44;;;;;;;19.27;12.07;;;1.80;99.90;;;;;;5042393;28;20025;-58
2022/03/03 00:28:10;;;;;;;19.00;11.38;;;1.70;99.90;;;;;;5041813;28;20052;-60
2022/03/03 00:30:35;;;;;;;19.08;11.75;;;1.70;99.90;;;;;;5038810;28;20163;-60
2022/03/03 00:33:01;;;;;;;19.85;12.20;;;1.70;99.90;;;;;;5034812;28;20413;-58
2022/03/03 00:35:27;;;;;;;16.23;12.00;;;1.70;99.90;;;;;;5046469;28;20044;-59
2022/03/03 00:37:52;;;;;;;17.55;11.43;;;1.50;99.90;;;;;;5040290;28;20499;-59
2022/03/03 00:40:19;;;;;;;19.33;11.85;;;1.60;99.90;;;;;;5041330;28;20036;-61
2022/03/03 00:42:44;;;;;;;17.77;12.10;;;1.70;99.90;;;;;;5041107;28;20033;-60
2022/03/03 00:45:10;;;;;;;18.85;12.20;;;1.60;99.90;;;;;;5032131;28;20106;-60
2022/03/03 00:47:35;;;;;;;18.27;11.50;;;1.70;99.90;;;;;;5034560;28;20060;-60
2022/03/03 00:50:01;;;;;;;21.50;12.02;;;1.80;99.90;;;;;;5035581;28;20044;-60
2022/03/03 00:52:27;;;;;;;19.08;11.55;;;1.80;99.90;;;;;;5032881;28;20028;-60
2022/03/03 00:54:52;;;;;;;19.40;12.18;;;1.80;99.90;;;;;;5038289;28;20032;-60
2022/03/03 00:57:18;;;;;;;18.50;11.25;;;1.90;99.90;;;;;;5032082;28;20033;-60
2022/03/03 00:59:44;;;;;;;18.08;11.88;;;1.80;99.90;;;;;;5040319;28;20036;-60
2022/03/03 01:02:09;;;;;;;18.33;12.32;;;1.90;99.90;;;;;;5035037;28;20536;-60
2022/03/03 01:04:35;;;;;;;17.48;11.75;;;1.70;99.90;;;;;;5033565;28;20038;-60
2022/03/03 01:07:00;;;;;;;17.75;10.88;;;1.90;99.90;;;;;;5032447;28;20370;-61
2022/03/03 01:09:26;;;;;;;18.20;12.02;;;1.70;99.90;;;;;;5038024;28;20096;-60
2022/03/03 01:11:52;;;;;;;23.52;12.20;;;1.60;99.90;;;;;;5042982;28;20060;-60
2022/03/03 01:14:21;;;;;;;15.90;11.60;;;1.50;99.90;;;;;;5027341;28;20819;-60
2022/03/03 01:16:48;;;;;;;18.08;11.30;;;1.50;99.90;;;;;;5041866;28;20041;-61
2022/03/03 01:19:13;;;;;;;20.73;12.15;;;1.60;99.90;;;;;;5039845;28;20116;-60
2022/03/03 01:21:39;;;;;;;16.75;10.88;;;1.60;99.90;;;;;;5046409;28;20064;-60
2022/03/03 01:24:05;;;;;;;19.65;11.82;;;1.70;99.90;;;;;;5029984;28;20108;-61
2022/03/03 01:26:31;;;;;;;18.02;12.55;;;1.70;99.90;;;;;;5040384;28;20037;-60
2022/03/03 01:28:56;;;;;;;18.70;11.90;;;1.90;99.90;;;;;;5047370;28;20089;-60
2022/03/03 01:31:22;;;;;;;20.58;12.20;;;1.90;99.90;;;;;;5040397;28;20491;-60
2022/03/03 01:33:47;;;;;;;20.48;12.35;;;1.80;99.90;;;;;;5033781;28;20099;-60
2022/03/03 01:36:13;;;;;;;16.95;11.35;;;1.50;99.90;;;;;;5038023;28;20034;-60
2022/03/03 01:38:39;;;;;;;19.65;12.52;;;1.40;99.90;;;;;;5038988;28;20041;-60
2022/03/03 01:41:05;;;;;;;21.42;11.88;;;1.30;99.90;;;;;;5039683;28;20670;-60
2022/03/03 01:43:30;;;;;;;21.67;12.23;;;1.20;99.90;;;;;;5038279;28;20025;-61
2022/03/03 01:45:56;;;;;;;19.75;12.35;;;1.30;99.90;;;;;;5040338;28;20080;-60
2022/03/03 01:48:21;;;;;;;17.40;11.57;;;1.20;99.90;;;;;;5033504;28;20699;-60
2022/03/03 01:50:49;;;;;;;19.95;11.68;;;1.10;99.90;;;;;;5033901;28;20033;-61
2022/03/03 01:53:15;;;;;;;19.80;11.80;;;1.10;99.90;;;;;;5037553;28;20029;-61
2022/03/03 01:55:40;;;;;;;19.90;11.95;;;1.00;99.90;;;;;;5037777;28;20021;-60
2022/03/03 01:58:06;;;;;;;19.45;12.00;;;0.90;99.90;;;;;;5039166;28;20037;-60
2022/03/03 02:00:32;;;;;;;21.90;12.48;;;1.00;99.90;;;;;;5033363;28;20021;-60
2022/03/03 02:03:00;;;;;;;16.10;11.27;;;0.90;99.90;;;;;;5035041;28;20033;-61
2022/03/03 02:05:27;;;;;;;17.55;11.30;;;0.90;99.90;;;;;;5043651;28;20032;-60
2022/03/03 02:07:53;;;;;;;17.38;11.88;;;1.00;99.90;;;;;;5031113;28;20036;-61
2022/03/03 02:10:18;;;;;;;20.30;11.77;;;0.90;99.90;;;;;;5039880;28;20033;-59
2022/03/03 02:12:44;;;;;;;18.92;11.27;;;1.00;99.90;;;;;;5035614;28;20063;-61
2022/03/03 02:15:17;;;;;;;20.10;11.50;;;0.90;99.90;;;;;;5034573;28;20043;-60
2022/03/03 02:17:43;;;;;;;18.17;12.20;;;0.90;99.90;;;;;;5028843;28;20385;-60
2022/03/03 02:20:21;;;;;;;19.55;12.02;;;0.90;99.90;;;;;;5038619;28;20040;-58
2022/03/03 02:22:48;;;;;;;17.77;11.90;;;0.90;99.90;;;;;;5035596;28;20104;-59
2022/03/03 02:25:14;;;;;;;18.58;12.23;;;0.80;99.90;;;;;;5035551;28;20504;-61
2022/03/03 02:27:40;;;;;;;19.10;11.70;;;0.80;99.90;;;;;;5033013;28;20599;-60
2022/03/03 02:30:06;;;;;;;19.58;11.15;;;0.80;99.90;;;;;;5038794;28;20456;-60
2022/03/03 02:32:32;;;;;;;17.15;11.27;;;0.80;99.90;;;;;;5036109;28;20036;-60
2022/03/03 02:34:57;;;;;;;18.20;11.55;;;0.80;99.90;;;;;;5031893;28;20072;-60
2022/03/03 02:37:24;;;;;;;17.75;11.35;;;0.80;99.90;;;;;;5038439;28;20683;-61
2022/03/03 02:39:49;;;;;;;19.02;12.02;;;0.80;99.90;;;;;;5028946;28;20500;-58
2022/03/03 02:42:15;;;;;;;19.02;11.75;;;0.70;99.90;;;;;;5033245;28;20052;-60
2022/03/03 02:44:40;;;;;;;16.80;11.68;;;0.70;99.90;;;;;;5032730;28;20030;-60
2022/03/03 02:47:06;;;;;;;17.90;11.95;;;0.70;99.90;;;;;;5039578;28;20120;-60
2022/03/03 02:49:32;;;;;;;20.63;12.57;;;0.70;99.90;;;;;;5035722;28;20033;-60
2022/03/03 02:51:57;;;;;;;20.40;12.13;;;0.70;99.90;;;;;;5040490;28;20507;-61
2022/03/03 02:54:23;;;;;;;18.50;11.48;;;0.70;99.90;;;;;;5027121;28;20455;-60
2022/03/03 02:59:33;;;;;;;20.02;12.80;;;0.70;99.90;;;;;;5025882;28;20036;-61
2022/03/03 03:01:58;;;;;;;20.05;12.50;;;0.60;99.90;;;;;;5036151;28;20048;-61
2022/03/03 03:04:24;;;;;;;18.15;12.35;;;0.70;99.90;;;;;;5027606;28;20398;-61
2022/03/03 03:06:49;;;;;;;17.38;12.38;;;0.70;99.90;;;;;;5032409;28;20037;-59
2022/03/03 03:09:15;;;;;;;18.35;11.95;;;0.60;99.90;;;;;;5031027;28;20068;-62
2022/03/03 03:11:40;;;;;;;21.17;12.63;;;0.60;99.90;;;;;;5031297;28;20079;-59
2022/03/03 03:14:06;;;;;;;19.40;11.60;;;0.70;99.90;;;;;;5029952;28;20041;-59
2022/03/03 03:16:31;;;;;;;17.08;11.45;;;0.70;99.90;;;;;;5025180;28;20117;-60
2022/03/03 03:18:57;;;;;;;20.08;12.57;;;0.50;99.90;;;;;;5030897;28;20021;-61
2022/03/03 03:21:23;;;;;;;21.55;12.57;;;0.60;99.90;;;;;;5029910;28;20032;-61
2022/03/03 03:23:49;;;;;;;18.42;12.13;;;0.50;99.90;;;;;;5033314;28;20172;-61
2022/03/03 03:26:14;;;;;;;21.20;12.77;;;0.50;99.90;;;;;;5032474;28;20025;-60
2022/03/03 03:28:40;;;;;;;20.50;11.88;;;0.50;99.90;;;;;;5035259;28;20040;-59
2022/03/03 03:31:05;;;;;;;20.15;12.68;;;0.50;99.90;;;;;;5030743;28;20037;-61
2022/03/03 03:33:31;;;;;;;18.08;12.13;;;0.70;99.90;;;;;;5039220;28;20028;-61
2022/03/03 03:35:56;;;;;;;19.75;12.10;;;0.80;99.90;;;;;;5028490;28;20060;-61
2022/03/03 03:38:22;;;;;;;18.42;12.55;;;0.60;99.90;;;;;;5033277;28;20255;-61
2022/03/03 03:40:48;;;;;;;22.33;13.20;;;0.30;99.90;;;;;;5030232;28;20113;-61
2022/03/03 03:43:13;;;;;;;18.98;12.38;;;0.50;99.90;;;;;;5036783;28;20057;-60
2022/03/03 03:45:39;;;;;;;20.50;12.65;;;0.40;99.90;;;;;;5030315;28;20036;-61
2022/03/03 03:48:05;;;;;;;20.10;12.07;;;0.40;99.90;;;;;;5032596;28;20061;-62
2022/03/03 03:50:31;;;;;;;20.23;13.27;;;0.50;99.90;;;;;;5030526;28;20306;-62
2022/03/03 03:52:57;;;;;;;19.80;12.75;;;0.50;99.90;;;;;;5038790;28;20488;-61
2022/03/03 03:55:23;;;;;;;20.17;12.35;;;0.50;99.90;;;;;;5034285;28;20028;-61
2022/03/03 03:57:48;;;;;;;19.85;12.45;;;0.60;99.90;;;;;;5034839;28;20056;-61
2022/03/03 04:00:15;;;;;;;18.88;12.05;;;0.70;99.90;;;;;;5032494;28;20062;-61
2022/03/03 04:02:45;;;;;;;19.80;12.45;;;0.50;99.90;;;;;;5043423;28;20044;-61
2022/03/03 04:05:11;;;;;;;24.27;13.82;;;0.50;99.90;;;;;;5038962;28;20055;-61
2022/03/03 04:07:37;;;;;;;18.70;11.90;;;0.50;99.90;;;;;;5038141;28;20029;-61
2022/03/03 04:10:04;;;;;;;21.20;12.63;;;0.40;99.90;;;;;;5037230;28;20105;-61
2022/03/03 04:12:30;;;;;;;20.67;13.40;;;0.50;99.90;;;;;;5037750;28;20030;-61
2022/03/03 04:14:55;;;;;;;19.08;12.75;;;0.50;99.90;;;;;;5038929;28;20710;-60
2022/03/03 04:17:21;;;;;;;17.88;12.60;;;0.50;99.90;;;;;;5037997;28;20440;-60
2022/03/03 04:19:47;;;;;;;23.95;13.38;;;0.40;99.90;;;;;;5039058;28;20040;-61
2022/03/03 04:22:12;;;;;;;21.15;12.88;;;0.80;99.90;;;;;;5038167;28;20087;-61
2022/03/03 04:24:38;;;;;;;19.90;12.35;;;0.60;99.90;;;;;;5044524;28;20025;-60
2022/03/03 04:27:04;;;;;;;19.58;13.45;;;0.50;99.90;;;;;;5037979;28;20055;-61
2022/03/03 04:29:30;;;;;;;25.50;14.35;;;0.60;99.90;;;;;;5034712;28;20025;-60
2022/03/03 04:31:57;;;;;;;20.45;12.52;;;0.40;99.90;;;;;;5039500;28;20093;-60
2022/03/03 04:34:25;;;;;;;22.60;13.27;;;;;;;;;;5042843;28;20432;-61
2022/03/03 04:36:51;;;;;;;21.40;12.57;;;;;;;;;;5040394;28;20022;-61
2022/03/03 04:39:17;;;;;;;21.00;13.35;;;0.00;99.90;;;;;;5039054;28;20106;-61
2022/03/03 04:41:43;;;;;;;18.52;12.90;;;0.10;99.90;;;;;;5038009;28;20424;-61
2022/03/03 04:44:09;;;;;;;19.25;12.95;;;0.10;99.90;;;;;;5044460;28;20386;-61
2022/03/03 04:46:35;;;;;;;21.10;13.32;;;0.10;99.90;;;;;;5035129;28;20175;-61
2022/03/03 04:49:01;;;;;;;21.05;12.73;;;0.10;99.90;;;;;;5039799;28;20134;-62
2022/03/03 04:51:28;;;;;;;20.38;12.88;;;0.00;99.90;;;;;;5045934;28;20032;-60
2022/03/03 04:53:53;;;;;;;21.17;13.70;;;0.00;99.90;;;;;;5039859;28;20028;-61
2022/03/03 04:56:19;;;;;;;19.65;13.27;;;0.10;99.90;;;;;;5044271;28;20036;-61
2022/03/03 04:58:45;;;;;;;21.02;13.55;;;0.20;99.90;;;;;;5033569;28;20060;-61
2022/03/03 05:01:11;;;;;;;20.60;13.18;;;;;;;;;;5046272;28;20039;-61
2022/03/03 05:03:37;;;;;;;22.10;13.27;;;-0.40;99.90;;;;;;5042153;28;20496;-61
2022/03/03 05:06:03;;;;;;;25.02;13.55;;;0.00;99.90;;;;;;5038217;28;20082;-60
2022/03/03 05:08:29;;;;;;;20.25;13.23;;;0.00;99.90;;;;;;5031064;28;20037;-61
2022/03/03 05:10:54;;;;;;;19.63;13.25;;;0.10;99.90;;;;;;5038473;28;20029;-62
2022/03/03 05:13:20;;;;;;;21.60;13.35;;;-0.10;99.90;;;;;;5043290;28;20198;-60
2022/03/03 05:15:46;;;;;;;21.95;13.27;;;-0.10;99.90;;;;;;5038359;28;20036;-62
2022/03/03 05:18:12;;;;;;;21.30;13.00;;;0.00;99.90;;;;;;5040929;28;20085;-60
2022/03/03 05:20:38;;;;;;;19.58;12.50;;;0.00;99.90;;;;;;5039850;28;20029;-61
2022/03/03 05:23:04;;;;;;;20.13;13.27;;;0.00;99.90;;;;;;5032771;28;20036;-60
2022/03/03 05:25:30;;;;;;;24.85;13.02;;;0.30;99.90;;;;;;5034618;28;20532;-61
2022/03/03 05:27:58;;;;;;;20.52;13.15;;;0.20;99.90;;;;;;5042616;28;20107;-61
2022/03/03 05:30:23;;;;;;;20.27;12.93;;;0.10;99.90;;;;;;5038899;28;20034;-61
2022/03/03 05:32:49;;;;;;;18.77;11.95;;;-0.20;99.90;;;;;;5032748;28;20025;-61
2022/03/03 05:35:15;;;;;;;20.65;12.93;;;-0.30;99.90;;;;;;5037901;28;20111;-61
2022/03/03 05:37:43;;;;;;;21.77;12.80;;;-0.10;99.90;;;;;;5040717;28;20516;-60
2022/03/03 05:40:09;;;;;;;23.73;13.80;;;0.10;99.90;;;;;;5029523;28;20022;-59
2022/03/03 05:42:36;;;;;;;21.38;13.43;;;0.10;99.90;;;;;;5037754;28;20042;-61
2022/03/03 05:45:02;;;;;;;27.15;14.00;;;0.00;99.90;;;;;;5035122;28;20107;-62
2022/03/03 05:47:29;;;;;;;24.13;13.88;;;-0.20;99.90;;;;;;5042018;28;20459;-62
2022/03/03 05:49:55;;;;;;;22.63;14.30;;;-0.10;99.90;;;;;;5038738;28;20098;-61
2022/03/03 05:52:21;;;;;;;23.75;13.10;;;-0.20;99.90;;;;;;5039047;28;20111;-61
2022/03/03 05:54:47;;;;;;;23.27;13.57;;;-0.10;99.90;;;;;;5039518;28;20456;-59
2022/03/03 05:57:34;;;;;;;23.60;12.80;;;-0.20;99.90;;;;;;5034942;28;20033;-61
2022/03/03 06:00:07;;;;;;;22.58;13.70;;;-0.10;99.90;;;;;;5034491;28;20079;-61
2022/03/03 06:02:32;;;;;;;21.33;13.40;;;-0.30;99.90;;;;;;5031543;28;20126;-61
2022/03/03 06:04:58;;;;;;;24.15;13.77;;;-0.20;99.90;;;;;;5034914;28;20040;-61
2022/03/03 06:07:28;;;;;;;21.83;13.45;;;-0.10;99.90;;;;;;5033317;28;20039;-61
2022/03/03 06:09:56;;;;;;;25.80;13.93;;;-0.10;99.90;;;;;;5038719;28;20044;-61
2022/03/03 06:12:27;;;;;;;21.73;13.48;;;0.10;99.90;;;;;;5036872;28;20071;-61
2022/03/03 06:14:55;;;;;;;22.77;13.52;;;0.00;99.90;;;;;;5036898;28;20108;-61
2022/03/03 06:17:25;;;;;;;24.25;13.77;;;-0.10;99.90;;;;;;5042682;28;20437;-61
2022/03/03 06:19:52;;;;;;;26.15;14.65;;;-0.20;99.90;;;;;;5036486;28;20025;-59
2022/03/03 06:22:18;;;;;;;22.65;13.23;;;-0.20;99.90;;;;;;5031363;28;20225;-61
2022/03/03 06:24:44;;;;;;;23.73;13.65;;;-0.30;99.90;;;;;;5041765;28;20130;-61
2022/03/03 06:27:10;;;;;;;22.20;12.85;;;-0.30;99.90;;;;;;5041728;28;20051;-61
2022/03/03 06:29:38;;;;;;;22.58;12.80;;;-0.30;99.90;;;;;;5041810;28;20040;-61
2022/03/03 06:32:04;;;;;;;22.30;13.63;;;-0.30;99.90;;;;;;5038486;28;20032;-65
2022/03/03 06:34:29;;;;;;;24.17;13.63;;;-0.30;99.90;;;;;;5032378;28;20033;-64
2022/03/03 06:36:55;;;;;;;23.98;12.65;;;-0.40;99.90;;;;;;5042620;28;20031;-63
2022/03/03 06:39:21;;;;;;;25.40;14.15;;;-0.40;99.90;;;;;;5037351;28;20493;-63
2022/03/03 06:41:47;;;;;;;22.67;13.80;;;-0.30;99.90;;;;;;5033930;28;20485;-64
2022/03/03 06:44:13;;;;;;;24.58;14.68;;;-0.30;99.90;;;;;;5045007;28;20034;-63
2022/03/03 06:46:39;;;;;;;25.13;15.00;;;-0.40;99.90;;;;;;5038075;28;20124;-62
2022/03/03 06:49:05;;;;;;;25.67;13.48;;;-0.30;99.90;;;;;;5033006;28;20405;-64
2022/03/03 06:51:40;;;;;;;24.75;14.43;;;-0.30;99.90;;;;;;5035513;28;20028;-64
2022/03/03 06:54:10;;;;;;;23.42;13.55;;;-0.20;99.90;;;;;;5044172;28;20160;-64
2022/03/03 06:56:55;;;;;;;21.70;13.73;;;0.00;99.90;;;;;;5037697;28;20033;-64
2022/03/03 06:59:25;;;;;;;23.98;13.93;;;0.00;99.90;;;;;;5034735;28;20481;-64
2022/03/03 07:01:52;;;;;;;30.88;16.75;;;0.20;99.90;;;;;;5035403;28;20157;-64
2022/03/03 07:04:19;;;;;;;24.75;15.00;;;0.20;99.90;;;;;;5029841;28;20025;-63
2022/03/03 07:06:46;;;;;;;32.65;16.30;;;0.40;99.90;;;;;;5031712;28;20045;-65
2022/03/03 07:09:12;;;;;;;29.67;16.60;;;0.60;99.90;;;;;;5033654;28;20029;-65
2022/03/03 07:11:39;;;;;;;27.45;15.43;;;0.80;99.90;;;;;;5034428;28;20453;-65
2022/03/03 07:14:06;;;;;;;27.95;16.40;;;1.00;99.90;;;;;;5029908;28;20037;-63
2022/03/03 07:17:05;;;;;;;27.83;16.25;;;1.10;99.90;;;;;;5034359;28;20376;-65
2022/03/03 07:19:49;;;;;;;23.70;14.32;;;1.20;99.90;;;;;;5027497;28;20021;-63
2022/03/03 07:22:38;;;;;;;24.40;15.23;;;1.20;99.90;;;;;;5030580;28;20400;-65
2022/03/03 07:25:08;;;;;;;26.95;15.10;;;1.10;99.90;;;;;;5029737;28;20029;-62
2022/03/03 07:27:35;;;;;;;26.65;16.27;;;1.10;99.90;;;;;;5025443;28;20580;-65
2022/03/03 07:30:05;;;;;;;27.65;16.02;;;0.90;99.90;;;;;;5034766;28;20036;-63
2022/03/03 07:32:35;;;;;;;29.90;17.02;;;1.40;99.90;;;;;;5036701;28;20116;-62
2022/03/03 07:35:10;;;;;;;33.83;18.23;;;1.40;99.90;;;;;;5040785;28;20029;-62
2022/03/03 07:37:46;;;;;;;31.58;17.52;;;1.60;99.90;;;;;;5036949;28;20045;-62
2022/03/03 07:40:12;;;;;;;34.13;18.30;;;;;;;;;;5033840;28;20505;-62
2022/03/03 07:42:39;;;;;;;36.75;16.15;;;2.10;99.90;;;;;;5031043;28;20033;-62
2022/03/03 07:45:07;;;;;;;30.70;16.73;;;2.30;99.90;;;;;;5032957;28;20034;-64
2022/03/03 07:47:33;;;;;;;33.53;17.17;;;2.30;99.90;;;;;;5035930;28;20017;-64
2022/03/03 07:49:59;;;;;;;30.55;16.83;;;2.30;99.90;;;;;;5031035;28;20100;-64
2022/03/03 07:52:25;;;;;;;28.55;16.10;;;2.30;99.90;;;;;;5034940;28;20033;-62
2022/03/03 07:54:51;;;;;;;27.83;17.10;;;2.70;99.90;;;;;;5036341;28;20385;-65
2022/03/03 07:57:17;;;;;;;27.58;16.02;;;2.70;99.90;;;;;;5042946;28;20024;-62
2022/03/03 07:59:49;;;;;;;25.80;16.15;;;2.80;99.90;;;;;;5032951;28;20021;-64
2022/03/03 08:02:22;;;;;;;30.30;16.20;;;2.90;99.90;;;;;;5036423;28;20375;-66
2022/03/03 08:04:51;;;;;;;27.23;16.23;;;3.10;99.90;;;;;;5029177;28;20025;-64
2022/03/03 08:07:18;;;;;;;28.27;15.93;;;3.20;99.90;;;;;;5037182;28;20025;-66
2022/03/03 08:09:47;;;;;;;31.70;16.92;;;3.20;99.90;;;;;;5032290;28;20032;-66
2022/03/03 08:12:15;;;;;;;30.33;16.23;;;3.30;99.90;;;;;;5035282;28;20389;-66
2022/03/03 08:14:41;;;;;;;25.23;15.75;;;;;;;;;;5036456;28;20032;-64
2022/03/03 08:17:11;;;;;;;26.77;15.75;;;3.50;99.90;;;;;;5029354;28;20037;-64
2022/03/03 08:19:38;;;;;;;29.05;15.65;;;3.70;99.90;;;;;;5032921;28;20099;-65
2022/03/03 08:22:03;;;;;;;28.45;16.50;;;3.80;99.90;;;;;;5033089;28;20047;-65
2022/03/03 08:24:29;;;;;;;34.92;19.45;;;3.90;99.90;;;;;;5034990;28;20025;-64
2022/03/03 08:26:55;;;;;;;31.42;18.52;;;4.10;99.90;;;;;;5032194;28;20212;-65
2022/03/03 08:29:22;;;;;;;23.27;14.20;;;4.20;99.90;;;;;;5034243;28;20468;-64
2022/03/03 08:31:52;;;;;;;19.42;12.85;;;4.30;99.90;;;;;;5035920;28;20028;-63
2022/03/03 08:34:42;;;;;;;24.38;12.80;;;4.30;99.90;;;;;;5034666;28;20556;-62
2022/03/03 08:37:13;;;;;;;19.52;10.88;;;4.50;99.90;;;;;;5029552;28;20477;-64
2022/03/03 08:39:40;;;;;;;16.27;10.88;;;4.60;99.90;;;;;;5035171;28;20108;-62
2022/03/03 08:42:12;;;;;;;22.80;12.95;;;4.80;99.90;;;;;;5037350;28;20486;-62
2022/03/03 08:44:41;;;;;;;18.92;11.73;;;4.90;99.90;;;;;;5032992;28;20960;-64
2022/03/03 08:47:11;;;;;;;14.60;10.43;;;5.00;99.90;;;;;;5029007;28;20468;-61
2022/03/03 08:49:39;;;;;;;18.02;10.80;;;5.00;99.90;;;;;;5038510;28;20564;-63
2022/03/03 08:52:07;;;;;;;17.05;10.82;;;5.10;99.90;;;;;;5044066;28;20143;-63
2022/03/03 08:54:33;;;;;;;16.50;10.75;;;5.20;99.90;;;;;;5040023;28;20036;-63
2022/03/03 08:56:59;;;;;;;17.60;10.63;;;5.20;99.90;;;;;;5040902;28;20113;-64
2022/03/03 08:59:25;;;;;;;14.75;10.63;;;5.40;99.90;;;;;;5038555;28;20025;-62
2022/03/03 09:01:51;;;;;;;17.77;10.57;;;5.40;99.90;;;;;;5038781;28;20048;-63
2022/03/03 09:04:17;;;;;;;21.48;10.93;;;5.50;99.90;;;;;;5027481;28;20473;-64
2022/03/03 09:06:44;;;;;;;21.08;11.07;;;5.70;99.90;;;;;;5034827;28;20029;-64
2022/03/03 09:09:10;;;;;;;18.38;10.73;;;5.70;99.90;;;;;;5034352;28;20033;-63
2022/03/03 09:11:36;;;;;;;14.63;10.02;;;5.80;99.90;;;;;;5041411;28;20029;-64
2022/03/03 09:14:01;;;;;;;14.73;10.02;;;5.90;99.90;;;;;;5044409;28;20060;-63
2022/03/03 09:16:27;;;;;;;19.88;10.98;;;5.90;99.90;;;;;;5034946;28;20021;-62
2022/03/03 09:18:53;;;;;;;20.40;10.75;;;6.00;99.90;;;;;;5030495;28;20033;-63
2022/03/03 09:21:18;;;;;;;15.13;9.90;;;6.10;99.90;;;;;;5036792;28;20025;-62
2022/03/03 09:23:44;;;;;;;17.40;10.38;;;5.90;99.90;;;;;;5041622;28;20026;-62
2022/03/03 09:26:10;;;;;;;15.00;10.32;;;6.30;99.90;;;;;;5037965;28;20029;-61
2022/03/03 09:28:36;;;;;;;17.73;10.25;;;6.30;99.90;;;;;;5040560;28;20029;-63
2022/03/03 09:31:02;;;;;;;17.80;10.77;;;6.50;99.90;;;;;;5035105;28;20033;-63
2022/03/03 09:33:28;;;;;;;16.08;10.15;;;6.30;99.90;;;;;;5037674;28;20099;-64
2022/03/03 09:35:53;;;;;;;17.05;10.95;;;6.50;99.90;;;;;;5037936;28;20041;-62
2022/03/03 09:38:19;;;;;;;18.85;10.90;;;6.70;99.90;;;;;;5037053;28;20031;-63
2022/03/03 09:40:45;;;;;;;16.35;10.70;;;6.60;99.90;;;;;;5036363;28;20422;-64
2022/03/03 09:43:11;;;;;;;17.25;11.10;;;6.70;99.90;;;;;;5037312;28;20047;-63
2022/03/03 09:45:38;;;;;;;17.23;11.02;;;6.70;99.90;;;;;;5036490;28;20111;-64
2022/03/03 09:48:09;;;;;;;18.33;10.65;;;6.90;99.90;;;;;;5035082;28;20100;-64
2022/03/03 09:50:39;;;;;;;16.38;10.85;;;6.90;99.90;;;;;;5036048;28;20040;-63
2022/03/03 09:53:10;;;;;;;18.95;11.43;;;7.00;99.90;;;;;;5038241;28;20079;-62
2022/03/03 09:55:37;;;;;;;18.40;10.95;;;7.00;99.90;;;;;;5035707;28;20040;-63
2022/03/03 09:58:03;;;;;;;19.83;11.35;;;7.00;99.90;;;;;;5036439;28;20629;-63
2022/03/03 10:00:33;;;;;;;17.77;10.68;;;7.00;99.90;;;;;;5032131;28;20038;-64
2022/03/03 10:03:08;;;;;;;22.60;10.95;;;7.00;99.90;;;;;;5036428;28;20033;-64
2022/03/03 10:05:38;;;;;;;16.95;11.18;;;7.00;99.90;;;;;;5036819;28;20087;-61
2022/03/03 10:08:10;;;;;;;16.42;10.88;;;7.10;99.90;;;;;;5036740;28;20031;-64
2022/03/03 10:10:38;;;;;;;20.67;11.33;;;7.10;99.90;;;;;;5036052;28;20060;-63
2022/03/03 10:13:05;;;;;;;18.15;10.57;;;7.20;99.90;;;;;;5034391;28;20775;-63
2022/03/03 10:15:32;;;;;;;16.10;10.70;;;7.30;99.90;;;;;;5035878;28;20636;-64
2022/03/03 10:18:01;;;;;;;17.25;10.73;;;7.30;99.90;;;;;;5035128;28;20029;-62
2022/03/03 10:20:28;;;;;;;14.15;9.90;;;7.50;99.90;;;;;;5037052;28;20017;-62
2022/03/03 10:22:57;;;;;;;16.90;9.80;;;7.50;99.90;;;;;;5035654;28;20139;-65
2022/03/03 10:25:35;;;;;;;14.88;9.52;;;7.50;99.90;;;;;;5032497;28;20508;-64
2022/03/03 10:28:22;;;;;;;16.85;9.48;;;7.80;99.90;;;;;;5033919;28;20029;-64
2022/03/03 10:30:54;;;;;;;14.95;10.50;;;7.80;99.90;;;;;;5032812;28;20032;-64
2022/03/03 10:33:22;;;;;;;15.60;10.38;;;7.80;99.90;;;;;;5036286;28;20139;-61
2022/03/03 10:35:58;;;;;;;14.75;9.75;;;7.80;99.90;;;;;;5037012;28;20048;-62
2022/03/03 10:38:24;;;;;;;15.32;9.48;;;7.90;99.90;;;;;;5037104;28;20025;-64
2022/03/03 10:40:49;;;;;;;18.92;9.90;;;7.90;99.90;;;;;;5040683;28;20028;-64
2022/03/03 10:43:15;;;;;;;14.07;9.27;;;8.00;99.90;;;;;;5038276;28;20033;-63
2022/03/03 10:45:55;;;;;;;12.73;8.95;;;8.20;99.90;;;;;;5031865;28;20061;-62
2022/03/03 10:48:23;;;;;;;12.75;9.13;;;8.20;99.90;;;;;;5033933;28;20029;-63
2022/03/03 10:50:50;;;;;;;16.10;9.63;;;8.20;99.90;;;;;;5038617;28;20094;-63
2022/03/03 10:53:18;;;;;;;15.48;9.30;;;8.40;99.90;;;;;;5038657;28;20377;-61
2022/03/03 10:56:07;;;;;;;14.30;9.25;;;8.30;99.90;;;;;;5028574;28;20096;-63
2022/03/03 10:58:43;;;;;;;19.85;9.60;;;8.40;99.90;;;;;;5038037;28;20025;-63
2022/03/03 11:01:08;;;;;;;13.32;9.13;;;8.50;99.90;;;;;;5033560;28;20336;-62
2022/03/03 11:03:35;;;;;;;18.40;9.23;;;8.40;99.90;;;;;;5031307;28;20026;-64
2022/03/03 11:06:02;;;;;;;13.98;9.15;;;8.60;99.90;;;;;;5040715;28;20476;-62
2022/03/03 11:08:29;;;;;;;14.07;9.10;;;8.70;99.90;;;;;;5035208;28;20575;-64
2022/03/03 11:10:55;;;;;;;11.77;8.40;;;8.70;99.90;;;;;;5039048;28;20024;-62
2022/03/03 11:13:21;;;;;;;13.48;9.20;;;8.70;99.90;;;;;;5034349;28;20401;-64
2022/03/03 11:15:48;;;;;;;12.32;8.90;;;8.70;99.90;;;;;;5033851;28;20059;-65
2022/03/03 11:18:18;;;;;;;13.70;8.30;;;8.70;99.90;;;;;;5035779;28;20044;-61
2022/03/03 11:20:46;;;;;;;15.00;8.57;;;8.80;99.90;;;;;;5036544;28;20385;-61
2022/03/03 11:23:11;;;;;;;13.75;7.65;;;8.80;99.90;;;;;;5034619;28;20135;-61
2022/03/03 11:25:38;;;;;;;11.70;7.53;;;8.80;99.90;;;;;;5033440;28;20631;-65
2022/03/03 11:28:08;;;;;;;12.90;7.75;;;8.90;99.90;;;;;;5031261;28;20036;-64
2022/03/03 11:30:35;;;;;;;9.60;7.32;;;8.90;99.90;;;;;;5033749;28;20507;-62
2022/03/03 11:33:25;;;;;;;12.18;7.28;;;9.00;99.90;;;;;;5032272;28;20504;-64
2022/03/03 11:35:58;;;;;;;11.10;7.45;;;9.00;99.90;;;;;;5034447;28;20025;-61
2022/03/03 11:38:43;;;;;;;11.68;7.15;;;9.10;99.90;;;;;;5037179;28;20013;-65
2022/03/03 11:41:09;;;;;;;11.20;7.78;;;9.10;99.90;;;;;;5035501;28;20036;-64
2022/03/03 11:43:49;;;;;;;13.32;7.90;;;9.20;99.90;;;;;;5039502;28;20070;-64
2022/03/03 11:46:51;;;;;;;10.00;7.30;;;9.10;99.90;;;;;;5037026;28;20381;-64
2022/03/03 11:49:18;;;;;;;12.10;7.18;;;9.30;99.90;;;;;;5036476;28;20025;-65
2022/03/03 11:51:47;;;;;;;9.80;7.15;;;9.30;99.90;;;;;;5039858;28;20120;-64
2022/03/03 11:54:13;;;;;;;14.57;7.40;;;9.40;99.90;;;;;;5034632;28;20021;-61
2022/03/03 11:57:03;;;;;;;11.00;7.50;;;9.50;99.90;;;;;;5039321;28;20025;-64
2022/03/03 11:59:42;;;;;;;10.40;7.40;;;9.50;99.90;;;;;;5037691;28;20362;-64
2022/03/03 12:02:09;;;;;;;10.48;7.47;;;9.60;99.90;;;;;;5037897;28;20028;-63
2022/03/03 12:04:37;;;;;;;10.27;7.20;;;9.50;99.90;;;;;;5030494;28;20713;-63
2022/03/03 12:07:03;;;;;;;11.07;7.53;;;9.60;99.90;;;;;;5033332;28;20043;-64
2022/03/03 12:09:32;;;;;;;10.77;7.50;;;9.60;99.90;;;;;;5032075;28;20028;-65
2022/03/03 12:12:12;;;;;;;12.07;6.90;;;9.70;99.90;;;;;;5040100;28;20033;-64
2022/03/03 12:15:00;;;;;;;11.77;7.38;;;9.80;99.90;;;;;;5039543;28;20013;-64
2022/03/03 12:17:35;;;;;;;11.95;7.10;;;9.80;99.90;;;;;;5039401;28;20048;-61
2022/03/03 12:20:47;;;;;;;11.35;7.68;;;9.80;99.90;;;;;;5036893;28;20099;-64
2022/03/03 12:23:18;;;;;;;9.05;7.03;;;9.80;99.90;;;;;;5035055;28;20393;-65
2022/03/03 12:25:50;;;;;;;11.77;7.38;;;9.80;99.90;;;;;;5042751;28;20041;-65
2022/03/03 12:28:46;;;;;;;15.07;7.70;;;9.70;99.90;;;;;;5037555;28;20497;-63
2022/03/03 12:31:27;;;;;;;11.50;8.25;;;9.80;99.90;;;;;;5045335;28;20032;-62
2022/03/03 12:34:06;;;;;;;11.40;7.57;;;9.90;99.90;;;;;;5042248;28;20126;-62
2022/03/03 12:36:34;;;;;;;11.25;7.97;;;9.90;99.90;;;;;;5036481;28;20032;-62
2022/03/03 12:39:00;;;;;;;12.15;7.63;;;9.90;99.90;;;;;;5040480;28;20090;-63
2022/03/03 12:41:28;;;;;;;15.98;8.77;;;10.20;99.90;;;;;;5041840;28;20037;-64
2022/03/03 12:44:07;;;;;;;58.53;39.97;;;10.50;99.90;;;;;;5038854;28;20117;-61
2022/03/03 12:46:34;;;;;;;14.15;9.05;;;10.30;99.90;;;;;;5038547;28;20675;-63